Time,TemperatureF,DewpointF,PressureIn,WindDirection,WindDirectionDegrees,WindSpeedMPH,WindSpeedGustMPH,Humidity,HourlyPrecipIn,Conditions,Clouds,dailyrainin,SolarRadiationWatts/m^2,SoftwareType,DateUTC
2013-11-16 00:01:00,38.1,33.4,29.84,NW,304,0.0,0.0,83,0.00,,CLR,0.00,0.00,VWS V15.00,2013-11-16 06:01:00,
2013-11-16 00:06:00,38.0,33.3,29.84,NW,304,0.0,0.0,83,0.00,,CLR,0.00,0.00,VWS V15.00,2013-11-16 06:06:00,
2013-11-16 00:11:00,38.0,33.3,29.84,NW,304,0.0,0.0,83,0.00,,CLR,0.00,0.00,VWS V15.00,2013-11-16 06:11:00,
2013-11-16 00:16:00,38.0,33.3,29.84,NW,304,0.0,0.0,83,0.00,,CLR,0.00,0.00,VWS V15.00,2013-11-16 06:16:00,
2013-11-16 00:21:00,38.0,33.3,29.84,NW,304,0.0,0.0,83,0.00,,CLR,0.00,0.00,VWS V15.00,2013-11-16 06:21:00,
2013-11-16 00:26:00,38.0,33.3,29.84,NW,304,0.0,0.0,83,0.00,,CLR,0.00,0.00,VWS V15.00,2013-11-16 06:26:00,
2013-11-16 00:31:00,38.0,33.3,29.84,NW,304,0.0,0.0,83,0.00,,CLR,0.00,0.00,VWS V15.00,2013-11-16 06:31:00,
2013-11-16 00:36:00,38.0,33.3,29.84,NW,304,0.0,0.0,83,0.00,,CLR,0.00,0.00,VWS V15.00,2013-11-16 06:36:00,
2013-11-16 00:41:00,38.0,33.3,29.83,NW,304,0.0,0.0,83,0.00,,CLR,0.00,0.00,VWS V15.00,2013-11-16 06:41:00,
2013-11-16 00:46:00,38.0,33.3,29.83,NW,304,0.0,0.0,83,0.00,,CLR,0.00,0.00,VWS V15.00,2013-11-16 06:46:00,
2013-11-16 00:51:00,38.0,33.3,29.83,NW,304,0.0,0.0,83,0.00,,CLR,0.00,0.00,VWS V15.00,2013-11-16 06:51:00,
2013-11-16 00:56:00,38.0,33.3,29.83,NW,304,0.0,0.0,83,0.00,,CLR,0.00,0.00,VWS V15.00,2013-11-16 06:56:00,
2013-11-16 01:01:00,38.0,33.3,29.82,NW,304,0.0,0.0,83,0.00,,CLR,0.00,0.00,VWS V15.00,2013-11-16 07:01:00,
2013-11-16 01:06:00,38.0,33.3,29.82,NW,304,0.0,0.0,83,0.00,,CLR,0.00,0.00,VWS V15.00,2013-11-16 07:06:00,
2013-11-16 01:11:00,36.6,32.8,29.82,NW,304,0.0,0.0,86,0.00,,CLR,0.00,0.00,VWS V15.00,2013-11-16 07:11:00,
2013-11-16 01:16:00,36.6,32.8,29.82,NW,304,0.0,0.0,86,0.00,,SCT055,0.00,0.00,VWS V15.00,2013-11-16 07:16:00,
2013-11-16 01:21:00,36.5,32.7,29.82,NW,304,0.0,0.0,86,0.00,,SCT055,0.00,0.00,VWS V15.00,2013-11-16 07:21:00,
2013-11-16 01:26:00,36.5,32.7,29.82,NW,304,0.0,0.0,86,0.00,,SCT055,0.00,0.00,VWS V15.00,2013-11-16 07:26:00,
2013-11-16 01:31:00,36.5,32.7,29.83,NW,304,0.0,0.0,86,0.00,,SCT055,0.00,0.00,VWS V15.00,2013-11-16 07:31:00,
2013-11-16 01:36:00,36.5,32.7,29.82,NW,304,0.0,0.0,86,0.00,,SCT055,0.00,0.00,VWS V15.00,2013-11-16 07:36:00,
2013-11-16 01:41:00,36.4,32.9,29.83,NW,304,0.0,0.0,87,0.00,,SCT055,0.00,0.00,VWS V15.00,2013-11-16 07:41:00,
2013-11-16 01:46:00,36.4,32.9,29.83,NW,304,0.0,0.0,87,0.00,,BKN055,0.00,0.00,VWS V15.00,2013-11-16 07:46:00,
2013-11-16 01:51:00,36.3,32.8,29.83,NW,304,0.0,0.0,87,0.00,,BKN055,0.00,0.00,VWS V15.00,2013-11-16 07:51:00,
2013-11-16 01:56:00,36.2,32.7,29.82,NW,304,0.0,0.0,87,0.00,,BKN055,0.00,0.00,VWS V15.00,2013-11-16 07:56:00,
2013-11-16 02:01:00,36.1,32.6,29.83,NW,304,0.0,0.0,87,0.00,,SCT055,0.00,0.00,VWS V15.00,2013-11-16 08:01:00,
2013-11-16 02:06:00,36.0,32.5,29.83,NW,304,0.0,0.0,87,0.00,,SCT055,0.00,0.00,VWS V15.00,2013-11-16 08:06:00,
2013-11-16 02:11:00,35.9,32.4,29.83,NW,304,0.0,0.0,87,0.00,,SCT055,0.00,0.00,VWS V15.00,2013-11-16 08:11:00,
2013-11-16 02:16:00,35.9,32.7,29.83,NW,304,0.0,0.0,88,0.00,,SCT055,0.00,0.00,VWS V15.00,2013-11-16 08:16:00,
2013-11-16 02:21:00,35.9,32.7,29.83,NW,304,0.0,0.0,88,0.00,,SCT055,0.00,0.00,VWS V15.00,2013-11-16 08:21:00,
2013-11-16 02:26:00,36.0,33.1,29.83,NW,304,0.0,0.0,89,0.00,,SCT055,0.00,0.00,VWS V15.00,2013-11-16 08:26:00,
2013-11-16 02:31:00,36.1,33.2,29.83,NW,304,0.0,0.0,89,0.00,,SCT055,0.00,0.00,VWS V15.00,2013-11-16 08:31:00,
2013-11-16 02:36:00,36.3,33.4,29.83,NW,304,0.0,0.0,89,0.00,,SCT055,0.00,0.00,VWS V15.00,2013-11-16 08:36:00,
2013-11-16 02:41:00,36.5,33.6,29.83,NW,304,0.0,0.0,89,0.00,,SCT055,0.00,0.00,VWS V15.00,2013-11-16 08:41:00,
2013-11-16 02:46:00,36.6,33.7,29.82,NW,304,0.0,0.0,89,0.00,,BKN055,0.00,0.00,VWS V15.00,2013-11-16 08:46:00,
2013-11-16 02:51:00,36.8,33.9,29.82,NW,304,0.0,0.0,89,0.00,,BKN055,0.00,0.00,VWS V15.00,2013-11-16 08:51:00,
2013-11-16 02:56:00,36.9,34.0,29.82,NW,304,0.0,1.0,89,0.00,,BKN055,0.00,0.00,VWS V15.00,2013-11-16 08:56:00,
2013-11-16 03:01:00,37.1,34.2,29.82,NW,304,0.0,1.0,89,0.00,,OVC055,0.00,0.00,VWS V15.00,2013-11-16 09:01:00,
2013-11-16 03:06:00,37.3,34.4,29.82,NW,304,0.0,1.0,89,0.00,,OVC055,0.00,0.00,VWS V15.00,2013-11-16 09:06:00,
2013-11-16 03:11:00,37.4,34.5,29.81,NW,304,0.0,0.0,89,0.00,,OVC055,0.00,0.00,VWS V15.00,2013-11-16 09:11:00,
2013-11-16 03:16:00,37.5,34.3,29.81,NW,304,0.0,1.0,88,0.00,,OVC070,0.00,0.00,VWS V15.00,2013-11-16 09:16:00,
2013-11-16 03:21:00,37.5,34.3,29.81,NW,304,0.0,0.0,88,0.00,,OVC070,0.00,0.00,VWS V15.00,2013-11-16 09:21:00,
2013-11-16 03:26:00,37.6,34.4,29.81,NW,304,0.0,1.0,88,0.00,,OVC070,0.00,0.00,VWS V15.00,2013-11-16 09:26:00,
2013-11-16 03:31:00,37.6,34.4,29.80,NW,304,0.0,0.0,88,0.00,,OVC070,0.00,0.00,VWS V15.00,2013-11-16 09:31:00,
2013-11-16 03:36:00,37.7,34.5,29.81,NW,304,0.0,1.0,88,0.00,,OVC070,0.00,0.00,VWS V15.00,2013-11-16 09:36:00,
2013-11-16 03:41:00,37.7,34.5,29.80,NW,304,0.0,1.0,88,0.00,,OVC070,0.00,0.00,VWS V15.00,2013-11-16 09:41:00,
2013-11-16 03:46:00,37.7,34.5,29.80,NW,304,0.0,1.0,88,0.00,,OVC070,0.00,0.00,VWS V15.00,2013-11-16 09:46:00,
2013-11-16 03:51:00,37.7,34.2,29.80,NW,304,0.0,0.0,87,0.00,,OVC070,0.00,0.00,VWS V15.00,2013-11-16 09:51:00,
2013-11-16 03:56:00,37.6,34.1,29.81,NW,304,0.0,0.0,87,0.00,,OVC070,0.00,0.00,VWS V15.00,2013-11-16 09:56:00,
2013-11-16 04:01:00,37.5,34.0,29.80,NW,304,0.0,0.0,87,0.00,,BKN070,0.00,0.00,VWS V15.00,2013-11-16 10:01:00,
2013-11-16 04:06:00,37.5,34.0,29.80,NW,304,0.0,1.0,87,0.00,,BKN070,0.00,0.00,VWS V15.00,2013-11-16 10:06:00,
2013-11-16 04:11:00,37.4,34.2,29.80,NW,304,0.0,1.0,88,0.00,,BKN070,0.00,0.00,VWS V15.00,2013-11-16 10:11:00,
2013-11-16 04:16:00,37.4,34.2,29.80,NW,304,0.0,1.0,88,0.00,,SCT070,0.00,0.00,VWS V15.00,2013-11-16 10:16:00,
2013-11-16 04:21:00,37.4,34.2,29.80,NW,304,0.0,0.0,88,0.00,,SCT070,0.00,0.00,VWS V15.00,2013-11-16 10:21:00,
2013-11-16 04:26:00,37.3,34.1,29.79,NW,304,0.0,0.0,88,0.00,,SCT070,0.00,0.00,VWS V15.00,2013-11-16 10:26:00,
2013-11-16 04:31:00,37.2,34.0,29.79,NW,304,0.0,0.0,88,0.00,,SCT070,0.00,0.00,VWS V15.00,2013-11-16 10:31:00,
2013-11-16 04:36:00,37.1,33.9,29.79,NW,304,0.0,2.0,88,0.00,,SCT070,0.00,0.00,VWS V15.00,2013-11-16 10:36:00,
2013-11-16 04:41:00,37.1,33.9,29.79,NW,304,0.0,0.0,88,0.00,,SCT070,0.00,0.00,VWS V15.00,2013-11-16 10:41:00,
2013-11-16 04:46:00,37.0,33.8,29.78,NW,304,0.0,0.0,88,0.00,,CLR,0.00,0.00,VWS V15.00,2013-11-16 10:46:00,
2013-11-16 04:51:00,36.9,33.7,29.79,NW,304,0.0,0.0,88,0.00,,CLR,0.00,0.00,VWS V15.00,2013-11-16 10:51:00,
2013-11-16 04:56:00,36.8,33.6,29.78,NW,304,0.0,0.0,88,0.00,,CLR,0.00,0.00,VWS V15.00,2013-11-16 10:56:00,
2013-11-16 05:01:00,36.7,33.5,29.78,NW,304,0.0,0.0,88,0.00,,CLR,0.00,0.00,VWS V15.00,2013-11-16 11:01:00,
2013-11-16 05:06:00,36.6,33.7,29.77,NW,304,0.0,0.0,89,0.00,,CLR,0.00,0.00,VWS V15.00,2013-11-16 11:06:00,
2013-11-16 05:11:00,36.6,33.7,29.77,NW,304,0.0,0.0,89,0.00,,CLR,0.00,0.00,VWS V15.00,2013-11-16 11:11:00,
2013-11-16 05:16:00,36.6,33.7,29.76,NW,304,0.0,0.0,89,0.00,,CLR,0.00,0.00,VWS V15.00,2013-11-16 11:16:00,
2013-11-16 05:21:00,36.5,33.6,29.76,NW,304,0.0,0.0,89,0.00,,CLR,0.00,0.00,VWS V15.00,2013-11-16 11:21:00,
2013-11-16 05:26:00,36.4,33.5,29.76,NW,304,0.0,0.0,89,0.00,,CLR,0.00,0.00,VWS V15.00,2013-11-16 11:26:00,
2013-11-16 05:31:00,36.3,33.4,29.76,NW,304,0.0,0.0,89,0.00,,CLR,0.00,0.00,VWS V15.00,2013-11-16 11:31:00,
2013-11-16 05:36:00,36.2,33.3,29.76,NW,304,0.0,0.0,89,0.00,,CLR,0.00,0.00,VWS V15.00,2013-11-16 11:36:00,
2013-11-16 05:41:00,36.0,33.1,29.76,NW,304,0.0,0.0,89,0.00,,CLR,0.00,0.00,VWS V15.00,2013-11-16 11:41:00,
2013-11-16 05:46:00,35.9,33.0,29.76,NW,304,0.0,0.0,89,0.00,,CLR,0.00,0.00,VWS V15.00,2013-11-16 11:46:00,
2013-11-16 05:51:00,35.8,33.2,29.76,NW,304,0.0,0.0,90,0.00,,CLR,0.00,0.00,VWS V15.00,2013-11-16 11:51:00,
2013-11-16 05:56:00,35.7,33.1,29.76,NW,304,0.0,0.0,90,0.00,,CLR,0.00,0.00,VWS V15.00,2013-11-16 11:56:00,
2013-11-16 06:01:00,35.6,33.0,29.76,NW,304,0.0,0.0,90,0.00,,CLR,0.00,0.00,VWS V15.00,2013-11-16 12:01:00,
2013-11-16 06:06:00,35.5,32.9,29.76,NW,304,0.0,0.0,90,0.00,,CLR,0.00,0.00,VWS V15.00,2013-11-16 12:06:00,
2013-11-16 06:11:00,35.5,32.9,29.76,NW,304,0.0,0.0,90,0.00,,CLR,0.00,0.00,VWS V15.00,2013-11-16 12:11:00,
2013-11-16 06:16:00,35.5,33.1,29.76,NW,304,0.0,0.0,91,0.00,,CLR,0.00,0.00,VWS V15.00,2013-11-16 12:16:00,
2013-11-16 06:21:00,35.5,33.1,29.76,NW,304,0.0,0.0,91,0.00,,CLR,0.00,0.00,VWS V15.00,2013-11-16 12:21:00,
2013-11-16 06:26:00,35.5,33.4,29.76,NW,304,0.0,0.0,92,0.00,,CLR,0.00,0.00,VWS V15.00,2013-11-16 12:26:00,
2013-11-16 06:31:00,35.6,33.5,29.76,NW,304,0.0,0.0,92,0.00,,CLR,0.00,0.00,VWS V15.00,2013-11-16 12:31:00,
2013-11-16 06:36:00,35.7,33.6,29.76,NW,304,0.0,0.0,92,0.00,,CLR,0.00,0.00,VWS V15.00,2013-11-16 12:36:00,
2013-11-16 06:41:00,35.8,33.7,29.76,NW,304,0.0,0.0,92,0.00,,CLR,0.00,0.00,VWS V15.00,2013-11-16 12:41:00,
2013-11-16 06:46:00,36.0,33.9,29.75,NW,304,0.0,0.0,92,0.00,,SCT048,0.00,0.00,VWS V15.00,2013-11-16 12:46:00,
2013-11-16 06:51:00,36.1,34.3,29.76,NW,304,0.0,0.0,93,0.00,,SCT048,0.00,0.00,VWS V15.00,2013-11-16 12:51:00,
2013-11-16 06:56:00,36.2,34.4,29.76,NW,304,0.0,0.0,93,0.00,,SCT048,0.00,0.00,VWS V15.00,2013-11-16 12:56:00,
2013-11-16 07:01:00,36.2,34.4,29.76,NW,304,0.0,0.0,93,0.00,,SCT120,0.00,0.00,VWS V15.00,2013-11-16 13:01:00,
2013-11-16 07:06:00,36.4,34.6,29.75,NW,304,0.0,1.0,93,0.00,,SCT120,0.00,5.00,VWS V15.00,2013-11-16 13:06:00,
2013-11-16 07:11:00,36.6,34.8,29.75,NW,304,0.0,0.0,93,0.00,,SCT120,0.00,5.00,VWS V15.00,2013-11-16 13:11:00,
2013-11-16 07:16:00,36.8,35.0,29.74,NW,304,0.0,1.0,93,0.00,,BKN009,0.00,7.00,VWS V15.00,2013-11-16 13:16:00,
2013-11-16 07:21:00,37.1,35.3,29.74,NW,304,0.0,1.0,93,0.00,,BKN009,0.00,7.00,VWS V15.00,2013-11-16 13:21:00,
2013-11-16 07:26:00,37.3,35.7,29.74,NW,304,0.0,1.0,94,0.00,,BKN009,0.00,7.00,VWS V15.00,2013-11-16 13:26:00,
2013-11-16 07:31:00,37.5,35.9,29.74,NW,304,0.0,0.0,94,0.00,,BKN009,0.00,7.00,VWS V15.00,2013-11-16 13:31:00,
2013-11-16 07:36:00,37.7,36.1,29.74,WSW,246,0.0,3.0,94,0.00,,BKN009,0.00,7.00,VWS V15.00,2013-11-16 13:36:00,
2013-11-16 07:40:00,37.9,36.3,29.74,WSW,246,0.0,0.0,94,0.00,,BKN009,0.00,11.00,VWS V15.00,2013-11-16 13:40:00,
2013-11-16 07:45:00,38.0,36.4,29.74,WSW,246,1.0,1.0,94,0.00,,OVC007,0.00,7.00,VWS V15.00,2013-11-16 13:45:00,
2013-11-16 07:50:00,38.2,36.6,29.75,WSW,245,0.0,0.0,94,0.00,,OVC007,0.00,11.00,VWS V15.00,2013-11-16 13:50:00,
2013-11-16 07:55:00,38.3,36.7,29.74,WSW,245,0.0,0.0,94,0.00,,OVC007,0.00,11.00,VWS V15.00,2013-11-16 13:55:00,
2013-11-16 08:00:00,38.4,36.8,29.73,WSW,245,0.0,1.0,94,0.00,,,0.00,11.00,VWS V15.00,2013-11-16 14:00:00,
2013-11-16 08:05:00,38.6,37.0,29.73,WSW,245,0.0,1.0,94,0.00,,,0.00,12.00,VWS V15.00,2013-11-16 14:05:00,
2013-11-16 08:10:00,38.7,37.1,29.73,WSW,245,0.0,0.0,94,0.00,,,0.00,14.00,VWS V15.00,2013-11-16 14:10:00,
2013-11-16 08:15:00,38.8,37.2,29.73,WSW,245,0.0,0.0,94,0.00,,,0.00,19.00,VWS V15.00,2013-11-16 14:15:00,
2013-11-16 08:20:00,38.9,37.3,29.72,WSW,245,0.0,0.0,94,0.00,,,0.00,16.00,VWS V15.00,2013-11-16 14:20:00,
2013-11-16 08:25:00,39.0,37.4,29.72,WSW,245,0.0,1.0,94,0.00,,,0.00,12.00,VWS V15.00,2013-11-16 14:25:00,
2013-11-16 08:30:00,39.1,37.5,29.72,WSW,245,0.0,0.0,94,0.00,,,0.00,14.00,VWS V15.00,2013-11-16 14:30:00,
2013-11-16 08:35:00,39.3,37.7,29.72,WSW,245,0.0,1.0,94,0.00,,,0.00,12.00,VWS V15.00,2013-11-16 14:35:00,
2013-11-16 08:40:00,39.3,37.7,29.72,WSW,245,0.0,0.0,94,0.00,,,0.00,16.00,VWS V15.00,2013-11-16 14:40:00,
2013-11-16 08:45:00,39.5,38.2,29.72,WSW,245,0.0,0.0,95,0.00,,,0.00,21.00,VWS V15.00,2013-11-16 14:45:00,
2013-11-16 08:50:00,39.6,38.3,29.72,WSW,245,0.0,0.0,95,0.00,,,0.00,30.00,VWS V15.00,2013-11-16 14:50:00,
2013-11-16 08:55:00,39.7,38.4,29.72,WSW,245,0.0,1.0,95,0.00,,,0.00,23.00,VWS V15.00,2013-11-16 14:55:00,
2013-11-16 09:00:00,39.8,38.5,29.71,WSW,245,0.0,0.0,95,0.00,,,0.00,25.00,VWS V15.00,2013-11-16 15:00:00,
2013-11-16 09:05:00,40.0,38.7,29.71,WSW,245,0.0,2.0,95,0.00,,,0.00,25.00,VWS V15.00,2013-11-16 15:05:00,
2013-11-16 09:10:00,40.2,38.9,29.71,WSW,245,0.0,0.0,95,0.00,,,0.00,21.00,VWS V15.00,2013-11-16 15:10:00,
2013-11-16 09:15:00,40.4,39.1,29.71,WSW,245,0.0,1.0,95,0.00,,,0.00,12.00,VWS V15.00,2013-11-16 15:15:00,
2013-11-16 09:20:00,40.6,39.3,29.71,WSW,245,0.0,0.0,95,0.00,,,0.00,21.00,VWS V15.00,2013-11-16 15:20:00,
2013-11-16 09:25:00,40.7,39.4,29.70,WSW,245,0.0,1.0,95,0.00,,,0.00,28.00,VWS V15.00,2013-11-16 15:25:00,
2013-11-16 09:30:00,40.9,39.6,29.70,WSW,245,0.0,0.0,95,0.00,,,0.00,28.00,VWS V15.00,2013-11-16 15:30:00,
2013-11-16 09:35:00,41.1,39.8,29.71,WSW,245,0.0,1.0,95,0.00,,,0.00,19.00,VWS V15.00,2013-11-16 15:35:00,
2013-11-16 09:40:00,41.2,40.2,29.71,WSW,245,0.0,0.0,96,0.00,,,0.00,16.00,VWS V15.00,2013-11-16 15:40:00,
2013-11-16 09:45:00,41.4,40.3,29.71,WSW,245,0.0,1.0,96,0.00,,,0.00,26.00,VWS V15.00,2013-11-16 15:45:00,
2013-11-16 09:50:00,41.5,40.2,29.71,WSW,245,0.0,0.0,95,0.00,,,0.00,21.00,VWS V15.00,2013-11-16 15:50:00,
2013-11-16 09:55:00,41.6,40.5,29.71,WSW,245,0.0,0.0,96,0.00,,,0.00,25.00,VWS V15.00,2013-11-16 15:55:00,
2013-11-16 10:00:00,41.7,40.7,29.71,WSW,245,0.0,0.0,96,0.00,,,0.00,16.00,VWS V15.00,2013-11-16 16:00:00,
2013-11-16 10:05:00,41.8,40.8,29.71,WSW,245,0.0,1.0,96,0.00,,,0.00,12.00,VWS V15.00,2013-11-16 16:05:00,
2013-11-16 10:10:00,41.9,40.8,29.71,WSW,245,0.0,0.0,96,0.00,,,0.00,21.00,VWS V15.00,2013-11-16 16:10:00,
2013-11-16 10:15:00,42.0,40.9,29.70,WSW,245,0.0,2.0,96,0.00,,,0.00,19.00,VWS V15.00,2013-11-16 16:15:00,
2013-11-16 10:20:00,42.1,41.0,29.70,WSW,245,0.0,0.0,96,0.00,,,0.00,19.00,VWS V15.00,2013-11-16 16:20:00,
2013-11-16 10:25:00,42.2,41.1,29.69,WSW,245,0.0,0.0,96,0.00,,,0.00,23.00,VWS V15.00,2013-11-16 16:25:00,
2013-11-16 10:30:00,42.3,41.2,29.69,WSW,245,0.0,0.0,96,0.00,,,0.00,23.00,VWS V15.00,2013-11-16 16:30:00,
2013-11-16 10:35:00,42.4,41.3,29.68,WSW,245,0.0,0.0,96,0.00,,,0.00,33.00,VWS V15.00,2013-11-16 16:35:00,
2013-11-16 10:40:00,42.7,41.6,29.69,WSW,245,0.0,0.0,96,0.00,,,0.00,33.00,VWS V15.00,2013-11-16 16:40:00,
2013-11-16 10:45:00,42.9,41.8,29.68,WSW,245,0.0,1.0,96,0.00,,,0.00,28.00,VWS V15.00,2013-11-16 16:45:00,
2013-11-16 10:50:00,43.0,41.9,29.68,WSW,245,0.0,0.0,96,0.00,,,0.00,25.00,VWS V15.00,2013-11-16 16:50:00,
2013-11-16 10:55:00,43.1,42.0,29.67,WSW,245,0.0,1.0,96,0.00,,,0.00,19.00,VWS V15.00,2013-11-16 16:55:00,
2013-11-16 11:00:00,43.3,42.2,29.67,WSW,245,0.0,0.0,96,0.00,,,0.00,18.00,VWS V15.00,2013-11-16 17:00:00,
2013-11-16 11:06:00,43.4,42.3,29.67,WSW,245,0.0,0.0,96,0.00,,,0.00,26.00,VWS V15.00,2013-11-16 17:06:00,
2013-11-16 11:11:00,43.5,42.4,29.66,WSW,245,0.0,0.0,96,0.00,,,0.00,51.00,VWS V15.00,2013-11-16 17:11:00,
2013-11-16 11:16:00,43.6,42.5,29.64,WSW,245,0.0,1.0,96,0.00,,,0.00,40.00,VWS V15.00,2013-11-16 17:16:00,
2013-11-16 11:21:00,43.7,42.6,29.64,WSW,245,0.0,0.0,96,0.00,,,0.00,32.00,VWS V15.00,2013-11-16 17:21:00,
2013-11-16 11:26:00,44.0,43.2,29.64,WSW,245,0.0,0.0,97,0.00,,,0.00,25.00,VWS V15.00,2013-11-16 17:26:00,
2013-11-16 11:31:00,44.1,43.3,29.64,WSW,245,0.0,0.0,97,0.00,,,0.00,25.00,VWS V15.00,2013-11-16 17:31:00,
2013-11-16 11:36:00,44.2,43.4,29.64,WSW,245,0.0,0.0,97,0.00,,,0.00,30.00,VWS V15.00,2013-11-16 17:36:00,
2013-11-16 11:41:00,44.3,43.5,29.63,WSW,245,0.0,0.0,97,0.00,,,0.00,37.00,VWS V15.00,2013-11-16 17:41:00,
2013-11-16 11:46:00,44.4,43.6,29.63,WSW,245,0.0,1.0,97,0.00,,,0.00,33.00,VWS V15.00,2013-11-16 17:46:00,
2013-11-16 11:51:00,44.5,43.7,29.62,WSW,245,0.0,0.0,97,0.00,,,0.00,25.00,VWS V15.00,2013-11-16 17:51:00,
2013-11-16 11:56:00,44.6,43.8,29.61,WSW,245,0.0,1.0,97,0.00,,,0.00,19.00,VWS V15.00,2013-11-16 17:56:00,
2013-11-16 12:01:00,44.7,43.9,29.61,WSW,245,0.0,0.0,97,0.00,,,0.00,7.00,VWS V15.00,2013-11-16 18:01:00,
2013-11-16 12:06:00,44.8,44.0,29.61,WSW,245,0.0,1.0,97,0.00,,,0.00,18.00,VWS V15.00,2013-11-16 18:06:00,
2013-11-16 12:11:00,44.8,44.0,29.60,WSW,245,0.0,0.0,97,0.00,,,0.00,23.00,VWS V15.00,2013-11-16 18:11:00,
2013-11-16 12:16:00,44.9,44.1,29.60,WSW,245,0.0,0.0,97,0.00,,,0.00,23.00,VWS V15.00,2013-11-16 18:16:00,
2013-11-16 12:21:00,45.0,44.2,29.60,WSW,245,0.0,1.0,97,0.00,,,0.00,16.00,VWS V15.00,2013-11-16 18:21:00,
2013-11-16 12:26:00,45.1,44.3,29.60,WSW,245,0.0,1.0,97,0.00,,,0.00,19.00,VWS V15.00,2013-11-16 18:26:00,
2013-11-16 12:31:00,45.2,44.4,29.60,WSW,245,0.0,0.0,97,0.00,,,0.00,9.00,VWS V15.00,2013-11-16 18:31:00,
2013-11-16 12:36:00,45.3,44.5,29.59,WSW,245,0.0,2.0,97,0.00,,,0.00,21.00,VWS V15.00,2013-11-16 18:36:00,
2013-11-16 12:41:00,45.3,44.5,29.59,WSW,245,0.0,0.0,97,0.00,,,0.00,37.00,VWS V15.00,2013-11-16 18:41:00,
2013-11-16 12:46:00,45.5,44.7,29.58,WSW,245,0.0,1.0,97,0.00,,,0.00,14.00,VWS V15.00,2013-11-16 18:46:00,
2013-11-16 12:50:00,45.6,44.8,29.59,WSW,245,2.0,2.0,97,0.00,,,0.00,7.00,VWS V15.00,2013-11-16 18:50:00,
2013-11-16 12:55:00,45.6,44.8,29.59,WSW,245,0.0,2.0,97,0.00,,,0.00,5.00,VWS V15.00,2013-11-16 18:55:00,
2013-11-16 13:00:00,45.8,45.0,29.57,WSW,245,0.0,0.0,97,0.00,,,0.00,18.00,VWS V15.00,2013-11-16 19:00:00,
2013-11-16 13:05:00,45.8,45.0,29.57,WSW,245,0.0,0.0,97,0.00,,,0.00,26.00,VWS V15.00,2013-11-16 19:05:00,
2013-11-16 13:10:00,46.0,45.2,29.56,WSW,245,0.0,0.0,97,0.01,,,0.01,23.00,VWS V15.00,2013-11-16 19:10:00,
2013-11-16 13:15:00,46.1,45.3,29.56,WSW,245,0.0,1.0,97,0.01,,-RA,0.01,11.00,VWS V15.00,2013-11-16 19:15:00,
2013-11-16 13:20:00,46.4,45.6,29.56,WSW,245,0.0,0.0,97,0.01,,-RA,0.01,11.00,VWS V15.00,2013-11-16 19:20:00,
2013-11-16 13:25:00,46.5,45.7,29.56,WSW,245,1.0,2.0,97,0.01,,-RA,0.01,11.00,VWS V15.00,2013-11-16 19:25:00,
2013-11-16 13:30:00,46.7,45.9,29.55,WSW,241,0.0,0.0,97,0.01,,-RA,0.01,11.00,VWS V15.00,2013-11-16 19:30:00,
2013-11-16 13:35:00,46.9,46.1,29.55,SW,221,0.0,2.0,97,0.01,,-RA,0.01,16.00,VWS V15.00,2013-11-16 19:35:00,
2013-11-16 13:40:00,47.1,46.3,29.54,SW,221,0.0,0.0,97,0.01,,-RA,0.01,18.00,VWS V15.00,2013-11-16 19:40:00,
2013-11-16 13:45:00,47.3,46.5,29.54,SW,221,1.0,2.0,97,0.01,,,0.01,12.00,VWS V15.00,2013-11-16 19:45:00,
2013-11-16 13:50:00,47.5,47.0,29.54,SSE,168,0.0,0.0,98,0.01,,,0.01,11.00,VWS V15.00,2013-11-16 19:50:00,
2013-11-16 13:55:00,47.6,47.1,29.54,SSE,168,0.0,1.0,98,0.01,,,0.01,9.00,VWS V15.00,2013-11-16 19:55:00,
2013-11-16 14:00:00,47.7,46.9,29.53,SSE,168,0.0,1.0,97,0.01,,,0.01,5.00,VWS V15.00,2013-11-16 20:00:00,
2013-11-16 14:05:00,47.8,47.0,29.53,SSE,168,0.0,1.0,97,0.01,,,0.01,0.00,VWS V15.00,2013-11-16 20:05:00,
2013-11-16 14:10:00,47.9,47.1,29.53,South,180,0.0,0.0,97,0.00,,,0.01,0.00,VWS V15.00,2013-11-16 20:10:00,
2013-11-16 14:15:00,48.1,47.6,29.53,South,180,1.0,3.0,98,0.01,,,0.02,5.00,VWS V15.00,2013-11-16 20:15:00,
2013-11-16 14:20:00,48.2,47.7,29.52,SSE,163,1.0,1.0,98,0.01,,,0.02,12.00,VWS V15.00,2013-11-16 20:20:00,
2013-11-16 14:25:00,48.4,47.9,29.51,SSE,163,0.0,2.0,98,0.01,,,0.02,16.00,VWS V15.00,2013-11-16 20:25:00,
2013-11-16 14:30:00,48.6,48.1,29.52,SSE,163,0.0,0.0,98,0.01,,,0.02,28.00,VWS V15.00,2013-11-16 20:30:00,
2013-11-16 14:35:00,48.7,48.2,29.51,SSE,163,0.0,2.0,98,0.02,,,0.03,11.00,VWS V15.00,2013-11-16 20:35:00,
2013-11-16 14:40:00,48.7,48.2,29.50,SSE,163,0.0,0.0,98,0.03,,,0.04,9.00,VWS V15.00,2013-11-16 20:40:00,
2013-11-16 14:45:00,48.8,48.3,29.50,SSE,163,0.0,1.0,98,0.03,,,0.04,7.00,VWS V15.00,2013-11-16 20:45:00,
2013-11-16 14:50:00,48.8,48.3,29.50,SSE,163,1.0,1.0,98,0.03,,,0.04,7.00,VWS V15.00,2013-11-16 20:50:00,
2013-11-16 14:55:00,48.9,48.4,29.50,SSE,163,0.0,2.0,98,0.03,,,0.04,11.00,VWS V15.00,2013-11-16 20:55:00,
2013-11-16 15:00:00,49.0,48.5,29.49,SSE,163,0.0,0.0,98,0.03,,-RA,0.04,0.00,VWS V15.00,2013-11-16 21:00:00,
2013-11-16 15:05:00,49.2,48.7,29.49,SSE,163,0.0,4.0,98,0.03,,-RA,0.04,0.00,VWS V15.00,2013-11-16 21:05:00,
2013-11-16 15:10:00,49.3,48.8,29.49,SSE,163,0.0,4.0,98,0.03,,-RA,0.04,0.00,VWS V15.00,2013-11-16 21:10:00,
2013-11-16 15:15:00,49.4,48.9,29.49,South,169,0.0,4.0,98,0.03,,,0.04,0.00,VWS V15.00,2013-11-16 21:15:00,
2013-11-16 15:20:00,49.5,49.0,29.49,South,169,1.0,4.0,98,0.05,,,0.06,0.00,VWS V15.00,2013-11-16 21:20:00,
2013-11-16 15:25:00,49.7,49.2,29.48,South,177,0.0,4.0,98,0.04,,,0.06,0.00,VWS V15.00,2013-11-16 21:25:00,
2013-11-16 15:30:00,49.7,49.2,29.48,South,177,0.0,4.0,98,0.04,,,0.06,0.00,VWS V15.00,2013-11-16 21:30:00,
2013-11-16 15:35:00,49.8,49.3,29.47,South,177,0.0,3.0,98,0.04,,,0.06,0.00,VWS V15.00,2013-11-16 21:35:00,
2013-11-16 15:40:00,49.9,49.4,29.47,South,173,0.0,3.0,98,0.05,,,0.07,0.00,VWS V15.00,2013-11-16 21:40:00,
2013-11-16 15:45:00,50.0,49.5,29.47,South,173,0.0,2.0,98,0.04,,-RA,0.08,0.00,VWS V15.00,2013-11-16 21:45:00,
2013-11-16 15:50:00,50.1,49.6,29.47,South,169,0.0,5.0,98,0.05,,-RA,0.09,0.00,VWS V15.00,2013-11-16 21:50:00,
2013-11-16 15:55:00,50.2,49.7,29.46,SSE,152,0.0,3.0,98,0.08,,-RA,0.12,0.00,VWS V15.00,2013-11-16 21:55:00,
2013-11-16 16:00:00,50.4,49.9,29.46,SSE,153,0.0,0.0,98,0.09,,RA,0.13,0.00,VWS V15.00,2013-11-16 22:00:00,
2013-11-16 16:05:00,50.4,49.9,29.45,SSE,153,0.0,3.0,98,0.11,,RA,0.15,0.00,VWS V15.00,2013-11-16 22:05:00,
2013-11-16 16:10:00,50.4,49.9,29.45,SSE,153,0.0,1.0,98,0.12,,RA,0.16,0.00,VWS V15.00,2013-11-16 22:10:00,
2013-11-16 16:15:00,50.5,50.0,29.45,SSE,152,0.0,3.0,98,0.14,,-RA,0.18,0.00,VWS V15.00,2013-11-16 22:15:00,
2013-11-16 16:20:00,50.5,50.0,29.44,South,178,3.0,4.0,98,0.13,,-RA,0.19,0.00,VWS V15.00,2013-11-16 22:20:00,
2013-11-16 16:25:00,50.6,50.1,29.43,SSE,153,1.0,5.0,98,0.13,,-RA,0.19,0.00,VWS V15.00,2013-11-16 22:25:00,
2013-11-16 16:30:00,50.6,50.1,29.43,SSW,198,0.0,0.0,98,0.14,,-RA,0.20,0.00,VWS V15.00,2013-11-16 22:30:00,
2013-11-16 16:35:00,50.6,50.1,29.43,SSW,198,0.0,0.0,98,0.14,,-RA,0.20,0.00,VWS V15.00,2013-11-16 22:35:00,
2013-11-16 16:40:00,50.7,50.2,29.42,SSW,198,0.0,0.0,98,0.13,,-RA,0.20,0.00,VWS V15.00,2013-11-16 22:40:00,
2013-11-16 16:45:00,50.7,50.2,29.42,SSW,196,0.0,3.0,98,0.13,,-RA,0.20,0.00,VWS V15.00,2013-11-16 22:45:00,
2013-11-16 16:50:00,50.8,50.3,29.42,SSW,196,0.0,1.0,98,0.12,,-RA,0.21,0.00,VWS V15.00,2013-11-16 22:50:00,
2013-11-16 16:55:00,50.9,50.4,29.42,SSW,196,0.0,2.0,98,0.12,,-RA,0.21,0.00,VWS V15.00,2013-11-16 22:55:00,
2013-11-16 17:00:00,50.9,50.4,29.42,SSW,196,0.0,0.0,98,0.09,,-RA,0.22,0.00,VWS V15.00,2013-11-16 23:00:00,
2013-11-16 17:05:00,51.0,50.5,29.41,South,183,0.0,4.0,98,0.09,,-RA,0.22,0.00,VWS V15.00,2013-11-16 23:05:00,
2013-11-16 17:10:00,51.1,50.6,29.41,South,183,1.0,2.0,98,0.06,,-RA,0.22,0.00,VWS V15.00,2013-11-16 23:10:00,
2013-11-16 17:15:00,51.2,50.7,29.40,South,183,0.0,2.0,98,0.06,,OVC012,0.22,0.00,VWS V15.00,2013-11-16 23:15:00,
2013-11-16 17:20:00,51.3,50.8,29.40,South,183,1.0,1.0,98,0.03,,OVC012,0.22,0.00,VWS V15.00,2013-11-16 23:20:00,
2013-11-16 17:25:00,51.5,51.0,29.40,South,183,0.0,2.0,98,0.03,,OVC012,0.22,0.00,VWS V15.00,2013-11-16 23:25:00,
2013-11-16 17:30:00,51.7,51.2,29.42,SSW,210,0.0,0.0,98,0.02,,OVC012,0.22,0.00,VWS V15.00,2013-11-16 23:30:00,
2013-11-16 17:35:00,51.8,51.3,29.41,SSW,210,0.0,2.0,98,0.04,,OVC012,0.24,0.00,VWS V15.00,2013-11-16 23:35:00,
2013-11-16 17:40:00,51.8,51.3,29.40,SSW,210,0.0,0.0,98,0.09,,OVC012,0.29,0.00,VWS V15.00,2013-11-16 23:40:00,
2013-11-16 17:45:00,51.7,51.2,29.41,SSW,210,2.0,2.0,98,0.15,,OVC009,0.35,0.00,VWS V15.00,2013-11-16 23:45:00,
2013-11-16 17:50:00,51.9,51.4,29.42,SW,225,1.0,3.0,98,0.21,,OVC009,0.41,0.00,VWS V15.00,2013-11-16 23:50:00,
2013-11-16 17:55:00,52.1,51.5,29.43,SW,230,1.0,4.0,98,0.22,,OVC009,0.43,0.00,VWS V15.00,2013-11-16 23:55:00,
2013-11-16 18:00:00,52.2,51.7,29.44,West,265,0.0,5.0,98,0.34,, +RA,0.55,0.00,VWS V15.00,2013-11-17 00:00:00,
2013-11-16 18:05:00,52.2,51.7,29.42,West,267,0.0,2.0,98,0.36,, +RA,0.58,0.00,VWS V15.00,2013-11-17 00:05:00,
2013-11-16 18:10:00,52.2,51.7,29.42,West,267,0.0,2.0,98,0.40,, +RA,0.62,0.00,VWS V15.00,2013-11-17 00:10:00,
2013-11-16 18:15:00,52.2,51.7,29.42,West,267,0.0,2.0,98,0.44,, +RA,0.66,0.00,VWS V15.00,2013-11-17 00:15:00,
2013-11-16 18:20:00,52.3,51.8,29.42,West,265,0.0,3.0,98,0.44,, +RA,0.66,0.00,VWS V15.00,2013-11-17 00:20:00,
2013-11-16 18:25:00,52.3,51.8,29.42,West,265,0.0,2.0,98,0.46,, +RA,0.68,0.00,VWS V15.00,2013-11-17 00:25:00,
2013-11-16 18:30:00,52.3,51.8,29.42,West,265,0.0,2.0,98,0.48,, +RA,0.70,0.00,VWS V15.00,2013-11-17 00:30:00,
2013-11-16 18:35:00,52.3,51.8,29.42,West,265,0.0,2.0,98,0.50,, +RA,0.72,0.00,VWS V15.00,2013-11-17 00:35:00,
2013-11-16 18:40:00,52.3,51.8,29.41,West,265,0.0,2.0,98,0.52,, +RA,0.74,0.00,VWS V15.00,2013-11-17 00:40:00,
2013-11-16 18:45:00,52.4,51.8,29.40,West,265,0.0,1.0,98,0.47,,RA,0.76,0.00,VWS V15.00,2013-11-17 00:45:00,
2013-11-16 18:50:00,52.4,51.8,29.40,West,265,1.0,1.0,98,0.48,,RA,0.77,0.00,VWS V15.00,2013-11-17 00:50:00,
2013-11-16 18:55:00,52.4,51.8,29.39,West,265,1.0,1.0,98,0.37,,RA,0.78,0.00,VWS V15.00,2013-11-17 00:55:00,
2013-11-16 19:00:00,52.4,51.8,29.39,West,265,0.0,1.0,98,0.23,,RA,0.78,0.00,VWS V15.00,2013-11-17 01:00:00,
2013-11-16 19:05:00,52.4,51.8,29.40,SW,227,0.0,2.0,98,0.24,,RA,0.79,0.00,VWS V15.00,2013-11-17 01:05:00,
2013-11-16 19:10:00,52.5,52.0,29.39,SW,223,1.0,1.0,98,0.18,,RA,0.80,0.00,VWS V15.00,2013-11-17 01:10:00,
2013-11-16 19:15:00,52.5,52.0,29.39,South,178,0.0,4.0,98,0.19,,RA,0.81,0.00,VWS V15.00,2013-11-17 01:15:00,
2013-11-16 19:20:00,52.4,51.8,29.39,South,178,0.0,1.0,98,0.16,,RA,0.82,0.00,VWS V15.00,2013-11-17 01:20:00,
2013-11-16 19:25:00,52.3,51.8,29.38,South,178,0.0,2.0,98,0.16,,RA,0.82,0.00,VWS V15.00,2013-11-17 01:25:00,
2013-11-16 19:30:00,52.2,51.7,29.38,South,178,1.0,1.0,98,0.13,,RA,0.83,0.00,VWS V15.00,2013-11-17 01:30:00,
2013-11-16 19:35:00,52.1,51.5,29.38,South,178,0.0,2.0,98,0.13,,RA,0.83,0.00,VWS V15.00,2013-11-17 01:35:00,
2013-11-16 19:40:00,52.1,51.5,29.37,South,178,0.0,0.0,98,0.08,,RA,0.83,0.00,VWS V15.00,2013-11-17 01:40:00,
2013-11-16 19:45:00,51.9,51.4,29.37,South,178,1.0,2.0,98,0.08,,RA,0.83,0.00,VWS V15.00,2013-11-17 01:45:00,
2013-11-16 19:50:00,51.8,51.3,29.36,South,178,0.0,0.0,98,0.06,,RA,0.83,0.00,VWS V15.00,2013-11-17 01:50:00,
2013-11-16 19:55:00,51.7,51.2,29.36,South,178,0.0,0.0,98,0.06,,RA,0.83,0.00,VWS V15.00,2013-11-17 01:55:00,
2013-11-16 20:00:00,51.8,51.3,29.37,South,178,0.0,0.0,98,0.05,,-RA,0.83,0.00,VWS V15.00,2013-11-17 02:00:00,
2013-11-16 20:05:00,51.8,51.3,29.37,South,178,1.0,2.0,98,0.05,,-RA,0.83,0.00,VWS V15.00,2013-11-17 02:05:00,
2013-11-16 20:10:00,51.9,51.4,29.37,South,178,0.0,2.0,98,0.05,,-RA,0.83,0.00,VWS V15.00,2013-11-17 02:10:00,
2013-11-16 20:15:00,52.1,51.5,29.37,South,178,0.0,2.0,98,0.03,,-RA,0.83,0.00,VWS V15.00,2013-11-17 02:15:00,
2013-11-16 20:20:00,52.3,51.8,29.38,SSW,197,1.0,1.0,98,0.01,,-RA,0.83,0.00,VWS V15.00,2013-11-17 02:20:00,
2013-11-16 20:25:00,52.4,51.8,29.38,South,183,3.0,3.0,98,0.01,,-RA,0.83,0.00,VWS V15.00,2013-11-17 02:25:00,
2013-11-16 20:30:00,52.6,52.0,29.38,South,183,1.0,2.0,98,0.00,,-RA,0.83,0.00,VWS V15.00,2013-11-17 02:30:00,
2013-11-16 20:35:00,52.8,52.2,29.38,SSE,165,0.0,6.0,98,0.00,,-RA,0.83,0.00,VWS V15.00,2013-11-17 02:35:00,
2013-11-16 20:40:00,53.1,52.5,29.38,SSE,165,1.0,2.0,98,0.00,,-RA,0.83,0.00,VWS V15.00,2013-11-17 02:40:00,
2013-11-16 20:45:00,53.2,52.7,29.38,South,187,1.0,4.0,98,0.00,,-RA,0.83,0.00,VWS V15.00,2013-11-17 02:45:00,
2013-11-16 20:50:00,53.4,52.8,29.38,South,187,0.0,1.0,98,0.00,,-RA,0.83,0.00,VWS V15.00,2013-11-17 02:50:00,
2013-11-16 20:56:00,53.7,53.2,29.38,South,186,0.0,5.0,98,0.00,,-RA,0.83,0.00,VWS V15.00,2013-11-17 02:56:00,
2013-11-16 21:01:00,53.9,53.3,29.38,South,185,2.0,3.0,98,0.00,,BKN055,0.83,0.00,VWS V15.00,2013-11-17 03:01:00,
2013-11-16 21:06:00,54.1,53.5,29.38,South,185,2.0,3.0,98,0.00,,BKN055,0.83,0.00,VWS V15.00,2013-11-17 03:06:00,
2013-11-16 21:11:00,54.1,53.5,29.38,South,185,1.0,3.0,98,0.00,,BKN055,0.83,0.00,VWS V15.00,2013-11-17 03:11:00,
2013-11-16 21:16:00,54.2,53.7,29.38,South,185,1.0,3.0,98,0.00,,BKN030,0.83,0.00,VWS V15.00,2013-11-17 03:16:00,
2013-11-16 21:21:00,54.2,53.7,29.38,South,180,0.0,1.0,98,0.00,,BKN030,0.83,0.00,VWS V15.00,2013-11-17 03:21:00,
2013-11-16 21:26:00,54.2,53.7,29.38,South,181,0.0,4.0,98,0.00,,BKN030,0.83,0.00,VWS V15.00,2013-11-17 03:26:00,
2013-11-16 21:31:00,54.3,53.8,29.38,South,181,0.0,3.0,98,0.00,,BKN030,0.83,0.00,VWS V15.00,2013-11-17 03:31:00,
2013-11-16 21:36:00,54.4,53.8,29.38,South,177,0.0,4.0,98,0.00,,BKN030,0.83,0.00,VWS V15.00,2013-11-17 03:36:00,
2013-11-16 21:41:00,54.4,53.8,29.38,South,177,0.0,3.0,98,0.00,,BKN030,0.83,0.00,VWS V15.00,2013-11-17 03:41:00,
2013-11-16 21:46:00,54.4,53.8,29.38,South,177,0.0,3.0,98,0.00,,BKN030,0.83,0.00,VWS V15.00,2013-11-17 03:46:00,
2013-11-16 21:51:00,54.4,53.8,29.38,South,177,0.0,0.0,98,0.00,,BKN030,0.83,0.00,VWS V15.00,2013-11-17 03:51:00,
2013-11-16 21:56:00,54.3,53.8,29.38,South,177,0.0,1.0,98,0.00,,BKN030,0.83,0.00,VWS V15.00,2013-11-17 03:56:00,
2013-11-16 22:01:00,54.4,53.8,29.38,SSW,193,0.0,0.0,98,0.00,,SCT048,0.83,0.00,VWS V15.00,2013-11-17 04:01:00,
2013-11-16 22:06:00,54.5,54.0,29.38,South,186,2.0,4.0,98,0.00,,SCT048,0.83,0.00,VWS V15.00,2013-11-17 04:06:00,
2013-11-16 22:11:00,54.6,54.0,29.38,South,181,1.0,2.0,98,0.00,,SCT048,0.83,0.00,VWS V15.00,2013-11-17 04:11:00,
2013-11-16 22:16:00,54.6,54.0,29.38,South,181,0.0,3.0,98,0.00,,SCT048,0.83,0.00,VWS V15.00,2013-11-17 04:16:00,
2013-11-16 22:21:00,54.6,54.0,29.38,South,179,3.0,3.0,98,0.00,,SCT048,0.83,0.00,VWS V15.00,2013-11-17 04:21:00,
2013-11-16 22:26:00,54.7,54.2,29.38,South,179,4.0,4.0,98,0.00,,SCT048,0.83,0.00,VWS V15.00,2013-11-17 04:26:00,
2013-11-16 22:31:00,54.7,54.2,29.38,South,189,1.0,1.0,98,0.00,,SCT020,0.83,0.00,VWS V15.00,2013-11-17 04:31:00,
2013-11-16 22:36:00,54.7,54.2,29.38,South,189,0.0,2.0,98,0.00,,SCT020,0.83,0.00,VWS V15.00,2013-11-17 04:36:00,
2013-11-16 22:41:00,54.7,54.2,29.39,South,189,0.0,1.0,98,0.00,,SCT020,0.83,0.00,VWS V15.00,2013-11-17 04:41:00,
2013-11-16 22:46:00,54.8,54.2,29.39,South,190,0.0,4.0,98,0.00,,CLR,0.83,0.00,VWS V15.00,2013-11-17 04:46:00,
2013-11-16 22:51:00,54.9,54.3,29.39,South,175,2.0,3.0,98,0.00,,CLR,0.83,0.00,VWS V15.00,2013-11-17 04:51:00,
2013-11-16 22:56:00,55.0,54.5,29.39,South,180,1.0,3.0,98,0.00,,CLR,0.83,0.00,VWS V15.00,2013-11-17 04:56:00,
2013-11-16 23:00:00,55.1,54.5,29.39,SSW,202,1.0,3.0,98,0.00,,SCT042,0.83,0.00,VWS V15.00,2013-11-17 05:00:00,
2013-11-16 23:01:00,55.1,54.5,29.39,SSW,202,0.0,3.0,98,0.00,,SCT042,0.83,0.00,VWS V15.00,2013-11-17 05:01:00,
2013-11-16 23:06:00,55.1,54.5,29.39,SSW,202,0.0,3.0,98,0.00,,SCT042,0.83,0.00,VWS V15.00,2013-11-17 05:06:00,
2013-11-16 23:11:00,55.1,54.5,29.39,South,183,0.0,2.0,98,0.00,,SCT042,0.83,0.00,VWS V15.00,2013-11-17 05:11:00,
2013-11-16 23:16:00,55.1,54.5,29.39,South,183,0.0,3.0,98,0.00,,OVC120,0.83,0.00,VWS V15.00,2013-11-17 05:16:00,
2013-11-16 23:21:00,55.1,54.5,29.39,South,183,1.0,2.0,98,0.00,,OVC120,0.83,0.00,VWS V15.00,2013-11-17 05:21:00,
2013-11-16 23:26:00,55.1,54.5,29.39,South,183,1.0,3.0,98,0.00,,OVC120,0.83,0.00,VWS V15.00,2013-11-17 05:26:00,
2013-11-16 23:31:00,55.1,54.5,29.39,South,183,1.0,1.0,98,0.00,,OVC120,0.83,0.00,VWS V15.00,2013-11-17 05:31:00,
2013-11-16 23:36:00,55.1,54.5,29.39,South,185,3.0,3.0,98,0.00,,OVC120,0.83,0.00,VWS V15.00,2013-11-17 05:36:00,
2013-11-16 23:41:00,55.2,54.7,29.39,South,181,4.0,5.0,98,0.00,,OVC120,0.83,0.00,VWS V15.00,2013-11-17 05:41:00,
2013-11-16 23:46:00,55.2,54.7,29.40,South,186,2.0,5.0,98,0.00,,BKN110,0.83,0.00,VWS V15.00,2013-11-17 05:46:00,
2013-11-16 23:51:00,55.2,54.7,29.40,South,186,1.0,2.0,98,0.00,,BKN110,0.83,0.00,VWS V15.00,2013-11-17 05:51:00,
2013-11-16 23:56:00,55.3,54.8,29.40,South,186,1.0,3.0,98,0.00,,BKN110,0.83,0.00,VWS V15.00,2013-11-17 05:56:00,